Tucson, AZ

8:35 PM MST on January 26, 2015 (GMT -0700)
Rincon West RV Resort | Change Station
CLOSE
Current Station
Personal Weather Station
Location: Tucson, AZ
Elevation: 2418 ft
Nearby Weather Stations

Elev 2418 ft 32.17 °N, 111.00 °W | Updated 13 seconds ago

Overcast
Overcast
60.3 °F
Feels Like 60.3 °F
N
3.8
Wind Variable Wind from NW
Gusts 10.1 mph

Today
High -- | Low -- °F
--% Chance of Precip.
Yesterday
High -- | Low -- °F
Precip. -- in
7:21 AM 5:51 PM
Waxing Crescent, 49% visible
Pressure 30.11 in
Visibility 10.0 miles
Clouds Overcast 10000 ft
Dew Point 25 °F
Humidity 25%
Rainfall 0.00 in
Snow Depth Not available.
UV 0 out of 12
Pollen 3.10 out of 12
Air Quality Not available.
Flu Activity Not available.
METAR KTUS 270253Z 27006KT 10SM OVC100 16/02 A3017 RMK AO2 SLP194 T01560022 53017 $

More Conditions Fewer Conditions

Pressure 30.11 in
Visibility 10.0 miles
Clouds Overcast 10000 ft
Dew Point 25 °F
Humidity 25%
Rainfall 0.00 in
Snow Depth Not available.
UV 0 out of 12
Pollen 3.10 out of 12
Air Quality Not available.
Flu Activity Not available.
METAR KTUS 270253Z 27006KT 10SM OVC100 16/02 A3017 RMK AO2 SLP194 T01560022 53017 $

More Conditions Fewer Conditions

Nowcast | as of 6:08 PM MST on January 26, 2015

Scattered showers will continue to shift north across Southeast Arizona this evening. The most widespread rainfall will be over the thono oodham nation into western Pima County. Rainfall amounts will generally tally less than 0.10 inches per hour.

×

10-Day Weather Forecast

Almanac

Astronomy

Jan. 26, 2015 Rise Set
Actual Time
Civil Twilight
Nautical Twilight
Astronomical Twilight
Moon
Length of Visible Light
Length of Day
Tomorrow will be .
, % of the Moon is Illuminated

Today's Extremes

State Highs State Lows

Community

WunderPhotos

Upload Photos

1,790,502 photos uploaded!

WunderBlogs® & News

Nearby

Air Quality

  Air Quality AQ Index Pollutant
Not available.

Snow Depth

Station Depth Elevation

Earthquake Activity

City Distance Mag. Time & Date
Minimum magnitude displayed is 2.5.

Coastal Water Temperatures

Place Temperature

Nearby Weather Stations